createdAt,value
2019-02-27T00:02:22.881Z,37.70
2019-02-27T00:07:27.126Z,37.23
2019-02-27T00:12:32.896Z,38.07
2019-02-27T00:17:39.058Z,39.47
2019-02-27T00:22:44.484Z,41.33
2019-02-27T00:27:50.267Z,38.20
2019-02-27T00:32:55.695Z,36.67
2019-02-27T00:38:01.353Z,37.80
2019-02-27T00:43:07.115Z,41.40
2019-02-27T00:48:12.543Z,42.93
2019-02-27T00:53:17.985Z,44.27
2019-02-27T00:58:26.873Z,42.17
2019-02-27T01:03:29.619Z,50.83
2019-02-27T01:08:35.071Z,48.70
2019-02-27T01:13:40.498Z,53.97
2019-02-27T01:18:45.938Z,53.43
2019-02-27T01:23:51.727Z,51.67
2019-02-27T01:28:57.224Z,52.17
2019-02-27T01:34:02.883Z,51.70
2019-02-27T01:39:11.367Z,49.47
2019-02-27T01:44:14.971Z,50.33
2019-02-27T01:49:20.770Z,50.20
2019-02-27T01:54:26.190Z,49.83
2019-02-27T01:59:31.614Z,49.40
2019-02-27T02:04:37.043Z,48.63
2019-02-27T02:09:44.024Z,49.27
2019-02-27T02:15:03.430Z,47.73
2019-02-27T02:20:37.039Z,46.53
2019-02-27T02:26:08.518Z,45.17
2019-02-27T02:32:43.747Z,44.43
2019-02-27T02:38:23.356Z,42.77
2019-02-27T02:44:57.217Z,43.60
2019-02-27T02:50:28.002Z,40.13
2019-02-27T02:55:52.983Z,41.23
2019-02-27T03:01:15.420Z,41.70
2019-02-27T03:08:44.193Z,43.13
2019-02-27T03:14:17.254Z,41.23
2019-02-27T03:19:41.307Z,40.63
2019-02-27T03:27:13.810Z,38.73
2019-02-27T03:32:28.819Z,37.93
2019-02-27T03:37:48.392Z,38.40
2019-02-27T03:44:31.492Z,39.37
2019-02-27T03:50:34.038Z,39.60
2019-02-27T03:56:57.937Z,37.80
2019-02-27T04:03:27.369Z,36.87
2019-02-27T04:08:57.973Z,29.97
2019-02-27T04:14:05.140Z,31.13
2019-02-27T04:19:09.007Z,26.57
2019-02-27T04:24:14.529Z,28.93
2019-02-27T04:29:19.982Z,28.83
2019-02-27T04:34:25.742Z,28.83
2019-02-27T04:39:31.180Z,27.83
2019-02-27T04:44:39.027Z,27.40
2019-02-27T04:49:42.505Z,25.97
2019-02-27T04:54:47.945Z,24.50
2019-02-27T04:59:53.391Z,25.67
2019-02-27T05:04:58.898Z,27.60
2019-02-27T05:10:06.845Z,26.30
2019-02-27T05:15:10.242Z,27.23
2019-02-27T05:20:15.690Z,32.00
2019-02-27T05:25:21.143Z,26.00
2019-02-27T05:30:26.592Z,30.33
2019-02-27T05:35:32.895Z,27.10
2019-02-27T05:40:38.673Z,26.87
2019-02-27T05:45:44.117Z,28.67
2019-02-27T05:50:49.550Z,27.93
2019-02-27T05:55:55.333Z,28.43
2019-02-27T06:01:02.026Z,27.37
2019-02-27T06:06:06.869Z,30.90
2019-02-27T06:11:12.198Z,30.07
2019-02-27T06:16:17.623Z,31.33
2019-02-27T06:21:23.094Z,29.00
2019-02-27T06:26:32.211Z,28.83
2019-02-27T06:31:36.841Z,28.90
2019-02-27T06:36:42.888Z,28.67
2019-02-27T06:41:47.417Z,26.63
2019-02-27T06:46:51.154Z,27.73
2019-02-27T06:51:56.392Z,28.03
2019-02-27T06:57:01.915Z,28.27
2019-02-27T07:02:07.758Z,27.17
2019-02-27T07:07:13.203Z,28.83
2019-02-27T07:12:21.605Z,29.20
2019-02-27T07:17:24.511Z,25.93
2019-02-27T07:22:30.271Z,27.87
2019-02-27T07:27:36.082Z,23.57
2019-02-27T07:32:41.627Z,26.43
2019-02-27T07:37:48.241Z,24.37
2019-02-27T07:42:53.074Z,24.27
2019-02-27T07:47:58.562Z,23.77
2019-02-27T07:53:04.375Z,24.03
2019-02-27T07:58:10.146Z,21.73
2019-02-27T08:03:15.582Z,25.03
2019-02-27T08:08:23.619Z,24.97
2019-02-27T08:13:27.062Z,24.37
2019-02-27T08:18:36.626Z,24.97
2019-02-27T08:23:37.422Z,27.53
2019-02-27T08:28:42.954Z,27.67
2019-02-27T08:33:48.402Z,27.67
2019-02-27T08:38:53.822Z,30.93
2019-02-27T08:43:59.324Z,29.90
2019-02-27T08:49:05.098Z,30.47
2019-02-27T08:54:10.882Z,29.93
2019-02-27T08:59:16.350Z,32.20
2019-02-27T09:04:23.490Z,30.27
2019-02-27T09:09:29.730Z,29.60
2019-02-27T09:14:35.179Z,30.47
2019-02-27T09:19:45.251Z,29.10
2019-02-27T09:24:46.483Z,30.30
2019-02-27T09:29:54.715Z,31.83
2019-02-27T09:34:59.611Z,30.27
2019-02-27T09:40:05.683Z,29.00
2019-02-27T09:45:21.894Z,28.17
2019-02-27T09:50:47.803Z,29.00
2019-02-27T09:55:53.437Z,28.17
2019-02-27T10:01:02.897Z,27.57
2019-02-27T10:06:08.771Z,27.27
2019-02-27T10:11:11.996Z,26.60
2019-02-27T10:16:17.792Z,27.90
2019-02-27T10:21:23.595Z,26.40
2019-02-27T10:26:29.378Z,26.83
2019-02-27T10:31:35.184Z,26.80
2019-02-27T10:36:40.735Z,26.33
2019-02-27T10:41:49.738Z,26.23
2019-02-27T10:46:52.150Z,25.93
2019-02-27T10:51:57.570Z,25.00
2019-02-27T10:57:03.423Z,25.37
2019-02-27T11:02:09.773Z,24.13
2019-02-27T11:07:15.799Z,24.10
2019-02-27T11:12:21.126Z,24.67
2019-02-27T11:17:26.827Z,24.53
2019-02-27T11:22:32.377Z,20.80
2019-02-27T11:27:39.010Z,20.43
2019-02-27T11:32:44.193Z,17.70
2019-02-27T11:37:50.032Z,19.43
2019-02-27T11:42:56.003Z,17.67
2019-02-27T11:48:01.580Z,17.90
2019-02-27T11:53:08.363Z,16.70
2019-02-27T11:58:14.190Z,16.20
2019-02-27T12:03:19.626Z,16.30
2019-02-27T12:08:26.560Z,15.43
2019-02-27T12:13:32.333Z,14.90
2019-02-27T12:18:36.426Z,14.07
2019-02-27T12:23:44.169Z,12.67
2019-02-27T12:28:47.598Z,12.40
2019-02-27T12:33:53.583Z,12.37
2019-02-27T12:38:59.066Z,10.57
2019-02-27T12:44:04.949Z,11.33
2019-02-27T12:49:10.509Z,11.07
2019-02-27T12:54:16.409Z,10.40
2019-02-27T12:59:22.289Z,10.03
2019-02-27T13:04:27.783Z,10.93
2019-02-27T13:09:33.233Z,9.67
2019-02-27T13:14:38.670Z,11.07
2019-02-27T13:19:44.442Z,10.23
2019-02-27T13:24:50.313Z,10.43
2019-02-27T13:30:05.498Z,9.93
2019-02-27T13:35:00.974Z,11.60
2019-02-27T13:40:09.961Z,10.87
2019-02-27T13:45:20.678Z,11.00
2019-02-27T13:50:27.031Z,10.40
2019-02-27T13:55:32.462Z,10.47
2019-02-27T14:00:38.056Z,11.20
2019-02-27T14:05:44.457Z,10.70
2019-02-27T14:10:50.466Z,12.23
2019-02-27T14:15:58.113Z,11.43
2019-02-27T14:21:02.393Z,13.10
2019-02-27T14:26:09.068Z,11.53
2019-02-27T14:31:13.874Z,11.97
2019-02-27T14:36:19.671Z,10.50
2019-02-27T14:41:25.566Z,11.43
2019-02-27T14:46:31.050Z,11.57
2019-02-27T14:51:37.210Z,10.50
2019-02-27T14:56:43.046Z,10.10
2019-02-27T15:01:49.446Z,10.07
2019-02-27T15:06:54.421Z,9.43
2019-02-27T15:17:20.469Z,9.00
2019-02-27T15:22:26.128Z,9.80
2019-02-27T15:27:31.542Z,7.73
2019-02-27T15:32:37.144Z,7.67
2019-02-27T15:37:42.646Z,8.63
2019-02-27T15:42:48.256Z,7.37
2019-02-27T15:47:53.747Z,7.77
2019-02-27T15:52:59.226Z,8.17
2019-02-27T15:58:05.084Z,8.23
2019-02-27T16:03:12.002Z,7.43
2019-02-27T16:08:20.253Z,8.07
2019-02-27T16:13:23.227Z,7.50
2019-02-27T16:18:28.722Z,7.40
2019-02-27T16:23:37.275Z,7.47
2019-02-27T16:28:39.730Z,8.03
2019-02-27T16:33:45.224Z,7.63
2019-02-27T16:38:50.674Z,7.40
2019-02-27T16:43:56.406Z,9.47
2019-02-27T16:49:02.083Z,9.80
2019-02-27T16:54:07.876Z,8.67
2019-02-27T16:59:13.421Z,8.33
2019-02-27T17:04:18.932Z,7.23
2019-02-27T17:09:24.399Z,5.40
2019-02-27T17:14:29.894Z,5.73
2019-02-27T17:19:36.545Z,5.67
2019-02-27T17:24:41.318Z,5.97
2019-02-27T17:29:46.794Z,6.53
2019-02-27T17:34:52.307Z,6.33
2019-02-27T17:39:59.286Z,6.57
2019-02-27T17:45:03.815Z,6.60
2019-02-27T17:50:09.797Z,6.70
2019-02-27T17:55:15.746Z,7.23
2019-02-27T18:00:28.553Z,7.07
2019-02-27T18:05:33.857Z,7.07
2019-02-27T18:10:40.009Z,6.53
2019-02-27T18:15:46.228Z,7.80
2019-02-27T18:20:59.459Z,7.80
2019-02-27T18:26:05.057Z,6.93
2019-02-27T18:31:10.835Z,7.47
2019-02-27T18:36:16.383Z,7.07
2019-02-27T18:41:21.866Z,8.33
2019-02-27T18:46:27.718Z,8.87
2019-02-27T18:51:33.941Z,8.40
2019-02-27T18:56:40.442Z,10.00
2019-02-27T19:01:46.076Z,10.67
2019-02-27T19:06:51.251Z,11.43
2019-02-27T19:11:57.434Z,11.20
2019-02-27T19:17:03.211Z,12.20
2019-02-27T19:22:11.200Z,11.60
2019-02-27T19:27:15.579Z,12.10
2019-02-27T19:32:23.188Z,11.03
2019-02-27T19:37:26.036Z,10.10
2019-02-27T19:42:31.502Z,11.37
2019-02-27T19:47:37.395Z,11.90
2019-02-27T19:52:42.997Z,11.87
2019-02-27T19:57:49.211Z,11.87
2019-02-27T20:02:59.318Z,11.13
2019-02-27T20:08:02.581Z,11.60
2019-02-27T20:13:07.915Z,11.43
2019-02-27T20:18:13.403Z,11.03
2019-02-27T20:23:19.127Z,10.17
2019-02-27T20:28:24.638Z,9.70
2019-02-27T20:33:30.202Z,11.23
2019-02-27T20:38:36.159Z,11.43
2019-02-27T20:43:42.313Z,12.33
2019-02-27T20:48:47.847Z,11.23
2019-02-27T20:53:55.494Z,12.17
2019-02-27T20:58:59.244Z,11.30
2019-02-27T21:04:04.922Z,10.90
2019-02-27T21:09:11.806Z,10.20
2019-02-27T21:14:16.875Z,10.93
2019-02-27T21:19:22.577Z,9.80
2019-02-27T21:24:28.227Z,10.00
2019-02-27T21:29:33.890Z,10.13
2019-02-27T21:34:39.572Z,10.50
2019-02-27T21:39:45.486Z,9.30
2019-02-27T21:44:51.182Z,9.67
2019-02-27T21:49:56.728Z,9.10
2019-02-27T21:55:02.318Z,8.87
2019-02-27T22:00:11.407Z,8.63
2019-02-27T22:05:18.919Z,8.27
2019-02-27T22:10:21.986Z,8.40
2019-02-27T22:15:29.002Z,7.57
2019-02-27T22:20:34.523Z,7.77
2019-02-27T22:25:40.414Z,8.00
2019-02-27T22:30:47.192Z,7.67
2019-02-27T22:35:52.640Z,8.20
2019-02-27T22:40:58.506Z,8.33
2019-02-27T22:46:04.446Z,7.43
2019-02-27T22:51:12.674Z,7.80
2019-02-27T22:56:16.849Z,8.13
2019-02-27T23:01:31.326Z,8.80
2019-02-27T23:06:36.831Z,7.93
2019-02-27T23:11:42.558Z,7.97
2019-02-27T23:16:48.060Z,7.23
2019-02-27T23:21:53.675Z,7.03
2019-02-27T23:26:59.868Z,7.60
2019-02-27T23:32:06.055Z,7.03
2019-02-27T23:37:11.530Z,7.83
2019-02-27T23:42:17.670Z,8.00
2019-02-27T23:47:23.536Z,7.83
2019-02-27T23:52:29.070Z,7.90
2019-02-27T23:57:34.508Z,7.87
